createdAt,value
2023-01-23T00:01:06.287Z,103372.25
2023-01-23T00:03:34.141Z,103373.16
2023-01-23T00:06:06.566Z,103366.94
2023-01-23T00:08:35.518Z,103368.75
2023-01-23T00:11:07.013Z,103367.88
2023-01-23T00:13:34.611Z,103373.22
2023-01-23T00:16:11.987Z,103369.69
2023-01-23T00:18:38.827Z,103364.31
2023-01-23T00:21:07.130Z,103373.22
2023-01-23T00:23:34.905Z,103368.75
2023-01-23T00:26:04.393Z,103374.06
2023-01-23T00:28:31.542Z,103374.94
2023-01-23T00:31:09.801Z,103370.47
2023-01-23T00:33:36.343Z,103373.09
2023-01-23T00:36:02.957Z,103368.63
2023-01-23T00:38:31.788Z,103387.28
2023-01-23T00:40:58.405Z,103385.47
2023-01-23T00:43:25.985Z,103389.91
2023-01-23T00:45:52.541Z,103388.13
2023-01-23T00:48:19.084Z,103397.00
2023-01-23T00:50:46.133Z,103396.09
2023-01-23T00:53:13.202Z,103400.53
2023-01-23T00:55:40.742Z,103399.66
2023-01-23T00:58:08.451Z,103411.22
2023-01-23T01:00:37.444Z,103401.44
2023-01-23T01:03:04.773Z,103399.66
2023-01-23T01:05:31.353Z,103403.22
2023-01-23T01:07:58.007Z,103398.78
2023-01-23T01:10:29.209Z,103397.94
2023-01-23T01:13:01.030Z,103398.81
2023-01-23T01:15:27.930Z,103399.69
2023-01-23T01:17:56.194Z,103396.13
2023-01-23T01:20:23.867Z,103395.28
2023-01-23T01:22:50.735Z,103397.06
2023-01-23T01:25:17.599Z,103401.50
2023-01-23T01:27:44.210Z,103398.84
2023-01-23T01:30:11.345Z,103396.16
2023-01-23T01:32:40.784Z,103403.28
2023-01-23T01:35:08.909Z,103396.16
2023-01-23T01:37:40.333Z,103403.28
2023-01-23T01:40:08.941Z,103413.97
2023-01-23T01:42:52.450Z,103413.13
2023-01-23T01:45:55.785Z,103409.59
2023-01-23T01:48:26.633Z,103409.63
2023-01-23T01:50:54.166Z,103412.31
2023-01-23T01:53:23.235Z,103409.69
2023-01-23T01:55:50.749Z,103415.94
2023-01-23T01:58:18.314Z,103421.25
2023-01-23T02:00:45.066Z,103418.59
2023-01-23T02:03:12.045Z,103411.47
2023-01-23T02:05:45.237Z,103413.22
2023-01-23T02:08:30.233Z,103409.63
2023-01-23T02:10:56.797Z,103412.31
2023-01-23T02:13:30.402Z,103416.75
2023-01-23T02:16:02.374Z,103410.53
2023-01-23T02:18:31.332Z,103415.00
2023-01-23T02:21:01.509Z,103409.69
2023-01-23T02:23:50.499Z,103421.25
2023-01-23T02:26:27.597Z,103418.63
2023-01-23T02:28:55.403Z,103402.63
2023-01-23T02:31:26.628Z,103405.31
2023-01-23T02:33:56.036Z,103400.00
2023-01-23T02:36:26.836Z,103407.97
2023-01-23T02:39:27.621Z,103404.41
2023-01-23T02:41:57.710Z,103408.84
2023-01-23T02:44:38.448Z,103402.63
2023-01-23T02:47:11.748Z,103407.09
2023-01-23T02:49:42.772Z,103403.53
2023-01-23T02:52:10.023Z,103397.31
2023-01-23T02:54:36.910Z,103390.19
2023-01-23T02:57:03.580Z,103397.31
2023-01-23T02:59:49.402Z,103409.75
2023-01-23T03:02:16.132Z,103410.66
2023-01-23T03:04:42.763Z,103405.34
2023-01-23T03:07:09.321Z,103407.13
2023-01-23T03:09:36.802Z,103400.88
2023-01-23T03:12:03.708Z,103407.97
2023-01-23T03:14:31.662Z,103405.28
2023-01-23T03:16:59.089Z,103401.69
2023-01-23T03:19:31.232Z,103401.72
2023-01-23T03:21:58.505Z,103410.63
2023-01-23T03:24:25.054Z,103411.50
2023-01-23T03:26:52.225Z,103412.38
2023-01-23T03:29:43.049Z,103414.16
2023-01-23T03:32:12.427Z,103419.50
2023-01-23T03:34:39.589Z,103414.19
2023-01-23T03:37:07.959Z,103419.50
2023-01-23T03:39:54.826Z,103419.53
2023-01-23T03:42:22.218Z,103403.53
2023-01-23T03:44:52.783Z,103406.19
2023-01-23T03:47:23.139Z,103409.75
2023-01-23T03:49:49.846Z,103416.84
2023-01-23T03:52:16.397Z,103418.63
2023-01-23T03:54:43.202Z,103423.06
2023-01-23T03:57:10.657Z,103428.41
2023-01-23T03:59:55.860Z,103431.06
2023-01-23T04:02:27.814Z,103430.22
2023-01-23T04:04:54.656Z,103424.88
2023-01-23T04:07:21.353Z,103421.31
2023-01-23T04:09:49.283Z,103424.88
2023-01-23T04:12:16.295Z,103426.66
2023-01-23T04:14:47.067Z,103426.66
2023-01-23T04:17:14.653Z,103424.00
2023-01-23T04:19:41.168Z,103430.22
2023-01-23T04:22:07.775Z,103423.97
2023-01-23T04:24:40.381Z,103425.75
2023-01-23T04:27:06.971Z,103430.16
2023-01-23T04:29:34.962Z,103425.75
2023-01-23T04:32:02.543Z,103427.53
2023-01-23T04:34:31.113Z,103419.50
2023-01-23T04:36:58.024Z,103426.63
2023-01-23T04:39:24.796Z,103432.88
2023-01-23T04:41:51.412Z,103429.34
2023-01-23T04:44:27.558Z,103425.78
2023-01-23T04:47:12.602Z,103428.44
2023-01-23T04:49:39.774Z,103424.91
2023-01-23T04:52:06.522Z,103425.81
2023-01-23T04:54:37.286Z,103432.94
2023-01-23T04:57:04.352Z,103432.06
2023-01-23T04:59:32.269Z,103440.94
2023-01-23T05:01:58.921Z,103424.00
2023-01-23T05:04:25.635Z,103424.00
2023-01-23T05:06:52.284Z,103438.25
2023-01-23T05:09:19.065Z,103432.91
2023-01-23T05:11:51.442Z,103440.00
2023-01-23T05:14:18.381Z,103439.13
2023-01-23T05:16:47.398Z,103443.59
2023-01-23T05:19:17.667Z,103446.25
2023-01-23T05:21:46.180Z,103440.94
2023-01-23T05:24:18.311Z,103442.72
2023-01-23T05:26:45.566Z,103439.16
2023-01-23T05:29:12.197Z,103445.38
2023-01-23T05:31:47.435Z,103446.25
2023-01-23T05:34:37.355Z,103443.59
2023-01-23T05:37:10.101Z,103444.47
2023-01-23T05:39:38.754Z,103445.38
2023-01-23T05:42:05.698Z,103447.19
2023-01-23T05:44:51.307Z,103442.75
2023-01-23T05:47:31.184Z,103455.22
2023-01-23T05:49:58.078Z,103459.66
2023-01-23T05:52:29.598Z,103458.75
2023-01-23T05:54:56.307Z,103467.66
2023-01-23T05:57:23.441Z,103477.44
2023-01-23T06:00:11.471Z,103466.72
2023-01-23T06:03:16.186Z,103469.38
2023-01-23T06:06:06.770Z,103468.50
2023-01-23T06:08:33.541Z,103470.31
2023-01-23T06:11:00.439Z,103476.53
2023-01-23T06:13:28.033Z,103486.28
2023-01-23T06:15:55.233Z,103485.38
2023-01-23T06:18:23.278Z,103485.38
2023-01-23T06:20:50.017Z,103483.59
2023-01-23T06:23:17.101Z,103488.94
2023-01-23T06:25:43.745Z,103488.03
2023-01-23T06:28:12.085Z,103488.03
2023-01-23T06:30:38.824Z,103491.59
2023-01-23T06:33:13.361Z,103486.22
2023-01-23T06:35:41.437Z,103490.66
2023-01-23T06:38:07.908Z,103487.97
2023-01-23T06:40:35.698Z,103495.09
2023-01-23T06:43:28.575Z,103487.09
2023-01-23T06:45:55.581Z,103480.88
2023-01-23T06:48:22.116Z,103481.75
2023-01-23T06:50:48.935Z,103489.78
2023-01-23T06:53:16.238Z,103499.59
2023-01-23T06:55:44.579Z,103486.22
2023-01-23T06:58:13.091Z,103498.69
2023-01-23T07:00:40.062Z,103500.47
2023-01-23T07:03:09.383Z,103506.69
2023-01-23T07:05:39.486Z,103508.44
2023-01-23T07:08:07.032Z,103508.44
2023-01-23T07:10:33.675Z,103512.00
2023-01-23T07:13:01.368Z,103506.66
2023-01-23T07:15:28.782Z,103515.56
2023-01-23T07:17:55.448Z,103517.34
2023-01-23T07:20:22.540Z,103518.22
2023-01-23T07:22:55.039Z,103512.88
2023-01-23T07:25:25.001Z,103520.88
2023-01-23T07:27:51.598Z,103521.75
2023-01-23T07:30:18.936Z,103523.50
2023-01-23T07:32:45.807Z,103523.50
2023-01-23T07:35:12.477Z,103520.84
2023-01-23T07:37:39.056Z,103529.72
2023-01-23T07:40:06.038Z,103529.69
2023-01-23T07:42:32.552Z,103529.69
2023-01-23T07:44:59.158Z,103543.06
2023-01-23T07:47:25.674Z,103540.38
2023-01-23T07:49:52.275Z,103547.50
2023-01-23T07:52:18.843Z,103556.38
2023-01-23T07:54:45.319Z,103553.72
2023-01-23T07:57:11.876Z,103559.06
2023-01-23T07:59:38.581Z,103551.91
2023-01-23T08:02:05.103Z,103551.91
2023-01-23T08:04:31.684Z,103560.81
2023-01-23T08:06:58.169Z,103559.94
2023-01-23T08:09:24.706Z,103561.72
2023-01-23T08:11:52.504Z,103563.47
2023-01-23T08:14:19.476Z,103563.44
2023-01-23T08:16:49.774Z,103567.00
2023-01-23T08:19:16.920Z,103573.22
2023-01-23T08:21:43.953Z,103563.41
2023-01-23T08:24:12.611Z,103566.97
2023-01-23T08:26:39.626Z,103566.06
2023-01-23T08:29:06.212Z,103569.59
2023-01-23T08:31:32.796Z,103576.69
2023-01-23T08:33:59.339Z,103573.13
2023-01-23T08:36:26.118Z,103580.22
2023-01-23T08:38:52.642Z,103582.88
2023-01-23T08:41:19.443Z,103584.63
2023-01-23T08:43:46.040Z,103573.94
2023-01-23T08:46:12.653Z,103578.38
2023-01-23T08:48:39.210Z,103580.16
2023-01-23T08:51:08.392Z,103586.38
2023-01-23T08:53:36.022Z,103587.25
2023-01-23T08:56:05.890Z,103589.00
2023-01-23T08:58:32.712Z,103591.66
2023-01-23T09:00:59.386Z,103593.44
2023-01-23T09:03:26.955Z,103592.53
2023-01-23T09:05:53.488Z,103588.06
2023-01-23T09:08:20.011Z,103585.34
2023-01-23T09:10:46.558Z,103591.53
2023-01-23T09:13:13.142Z,103594.16
2023-01-23T09:15:40.291Z,103595.03
2023-01-23T09:18:07.275Z,103594.09
2023-01-23T09:20:34.201Z,103598.56
2023-01-23T09:23:00.861Z,103602.97
2023-01-23T09:25:27.471Z,103605.63
2023-01-23T09:27:54.042Z,103602.03
2023-01-23T09:30:20.814Z,103594.00
2023-01-23T09:32:47.560Z,103591.28
2023-01-23T09:35:14.171Z,103587.69
2023-01-23T09:37:59.114Z,103584.13
2023-01-23T09:40:29.696Z,103583.19
2023-01-23T09:43:01.891Z,103584.09
2023-01-23T09:45:29.663Z,103587.66
2023-01-23T09:48:17.602Z,103589.44
2023-01-23T09:50:56.235Z,103596.50
2023-01-23T09:53:26.876Z,103601.81
2023-01-23T09:55:59.866Z,103607.09
2023-01-23T09:58:41.300Z,103597.31
2023-01-23T10:01:14.393Z,103609.72
2023-01-23T10:03:41.794Z,103613.25
2023-01-23T10:06:18.438Z,103604.38
2023-01-23T10:08:47.695Z,103605.22
2023-01-23T10:11:21.850Z,103608.78
2023-01-23T10:14:11.401Z,103611.44
2023-01-23T10:16:50.723Z,103620.28
2023-01-23T10:19:20.655Z,103620.25
2023-01-23T10:21:53.243Z,103615.75
2023-01-23T10:24:40.516Z,103617.53
2023-01-23T10:27:19.133Z,103623.78
2023-01-23T10:30:05.151Z,103622.00
2023-01-23T10:32:45.525Z,103620.19
2023-01-23T10:35:31.491Z,103621.03
2023-01-23T10:38:12.043Z,103619.19
2023-01-23T10:40:57.023Z,103619.16
2023-01-23T10:43:23.588Z,103622.72
2023-01-23T10:45:50.430Z,103620.91
2023-01-23T10:48:36.150Z,103615.56
2023-01-23T10:51:04.267Z,103611.97
2023-01-23T10:53:30.938Z,103611.97
2023-01-23T10:55:59.737Z,103606.59
2023-01-23T10:58:33.832Z,103613.75
2023-01-23T11:01:01.123Z,103610.16
2023-01-23T11:03:36.092Z,103611.03
2023-01-23T11:06:04.987Z,103611.88
2023-01-23T11:08:40.437Z,103613.63
2023-01-23T11:11:16.088Z,103629.66
2023-01-23T11:13:44.745Z,103617.13
2023-01-23T11:16:16.814Z,103605.59
2023-01-23T11:18:53.902Z,103613.66
2023-01-23T11:21:28.913Z,103610.09
2023-01-23T11:24:41.368Z,103607.47
2023-01-23T11:27:18.441Z,103610.97
2023-01-23T11:30:16.903Z,103614.59
2023-01-23T11:32:54.101Z,103601.16
2023-01-23T11:35:29.764Z,103600.22
2023-01-23T11:38:00.406Z,103605.50
2023-01-23T11:40:26.909Z,103606.34
2023-01-23T11:42:54.676Z,103603.63
2023-01-23T11:45:40.391Z,103609.84
2023-01-23T11:48:14.617Z,103602.72
2023-01-23T11:50:56.094Z,103607.16
2023-01-23T11:53:42.901Z,103610.72
2023-01-23T11:56:31.103Z,103614.22
2023-01-23T11:59:18.903Z,103613.38
2023-01-23T12:02:04.052Z,103616.03
2023-01-23T12:04:57.566Z,103615.16
2023-01-23T12:07:25.050Z,103616.94
2023-01-23T12:10:18.149Z,103617.84
2023-01-23T12:13:02.143Z,103615.13
2023-01-23T12:15:34.679Z,103609.75
2023-01-23T12:18:22.751Z,103620.47
2023-01-23T12:20:55.370Z,103612.47
2023-01-23T12:23:33.350Z,103612.44
2023-01-23T12:26:18.670Z,103616.88
2023-01-23T12:29:03.765Z,103612.44
2023-01-23T12:31:55.020Z,103606.19
2023-01-23T12:34:45.161Z,103605.25
2023-01-23T12:37:30.514Z,103602.56
2023-01-23T12:40:12.464Z,103590.94
2023-01-23T12:43:02.404Z,103588.25
2023-01-23T12:45:31.077Z,103592.69
2023-01-23T12:48:02.629Z,103592.66
2023-01-23T12:50:35.261Z,103591.75
2023-01-23T12:53:09.394Z,103579.22
2023-01-23T12:56:05.170Z,103585.44
2023-01-23T12:58:36.374Z,103588.09
2023-01-23T13:01:24.579Z,103591.66
2023-01-23T13:04:12.717Z,103591.66
2023-01-23T13:07:04.224Z,103597.06
2023-01-23T13:09:45.775Z,103597.06
2023-01-23T13:12:21.874Z,103596.22
2023-01-23T13:15:12.773Z,103598.03
2023-01-23T13:17:49.558Z,103596.22
2023-01-23T13:20:44.322Z,103595.31
2023-01-23T13:23:22.872Z,103592.66
2023-01-23T13:25:50.418Z,103601.59
2023-01-23T13:28:45.075Z,103601.66
2023-01-23T13:31:34.255Z,103598.94
2023-01-23T13:34:15.078Z,103606.06
2023-01-23T13:36:49.205Z,103605.19
2023-01-23T13:39:28.681Z,103601.63
2023-01-23T13:42:16.221Z,103607.94
2023-01-23T13:45:34.265Z,103609.75
2023-01-23T14:22:44.636Z,103639.34
2023-01-23T14:25:18.315Z,103631.34
2023-01-23T14:27:53.342Z,103628.63
2023-01-23T14:30:26.291Z,103623.31
2023-01-23T14:32:53.020Z,103617.06
2023-01-23T14:35:26.125Z,103626.81
2023-01-23T14:37:55.635Z,103627.69
2023-01-23T14:40:28.279Z,103625.88
2023-01-23T14:43:02.524Z,103625.81
2023-01-23T14:45:33.122Z,103613.31
2023-01-23T14:48:05.940Z,103617.72
2023-01-23T14:50:33.551Z,103612.34
2023-01-23T14:53:15.889Z,103607.91
2023-01-23T14:55:47.026Z,103602.53
2023-01-23T14:58:22.602Z,103590.94
2023-01-23T15:00:50.462Z,103588.25
2023-01-23T15:03:55.176Z,103583.81
2023-01-23T15:06:23.432Z,103587.38
2023-01-23T15:08:51.182Z,103584.75
2023-01-23T15:11:26.120Z,103579.38
2023-01-23T15:14:01.186Z,103567.78
2023-01-23T15:16:38.099Z,103560.69
2023-01-23T15:19:16.429Z,103557.13
2023-01-23T15:21:43.030Z,103550.03
2023-01-23T15:24:09.526Z,103550.94
2023-01-23T15:26:37.660Z,103549.16
2023-01-23T15:29:07.035Z,103553.59
2023-01-23T15:31:39.717Z,103542.03
2023-01-23T15:34:15.514Z,103557.16
2023-01-23T15:37:06.846Z,103561.69
2023-01-23T15:39:39.485Z,103567.03
2023-01-23T15:42:12.088Z,103569.75
2023-01-23T15:44:39.493Z,103568.84
2023-01-23T15:47:06.490Z,103570.66
2023-01-23T15:49:35.428Z,103576.03
2023-01-23T15:52:17.416Z,103587.63
2023-01-23T15:54:44.490Z,103580.47
2023-01-23T15:57:13.277Z,103574.22
2023-01-23T15:59:40.210Z,103576.03
2023-01-23T16:02:12.824Z,103575.16
2023-01-23T16:04:45.688Z,103581.44
2023-01-23T16:07:31.520Z,103585.91
2023-01-23T16:09:58.018Z,103593.94
2023-01-23T16:12:28.915Z,103599.28
2023-01-23T16:14:56.512Z,103608.22
2023-01-23T16:17:23.436Z,103610.97
2023-01-23T16:19:50.675Z,103607.41
2023-01-23T16:22:29.102Z,103587.81
2023-01-23T16:24:57.134Z,103599.41
2023-01-23T16:27:27.370Z,103598.50
2023-01-23T16:29:55.354Z,103605.59
2023-01-23T16:32:21.956Z,103593.94
2023-01-23T16:34:48.814Z,103595.69
2023-01-23T16:37:17.553Z,103589.44
2023-01-23T16:39:45.656Z,103599.19
2023-01-23T16:42:22.939Z,103600.09
2023-01-23T16:44:50.320Z,103598.28
2023-01-23T16:47:18.132Z,103600.94
2023-01-23T16:49:52.586Z,103602.75
2023-01-23T16:52:23.432Z,103611.69
2023-01-23T16:54:52.325Z,103598.38
2023-01-23T16:57:20.303Z,103612.69
2023-01-23T16:59:49.093Z,103610.03
2023-01-23T17:02:23.086Z,103605.59
2023-01-23T17:04:50.007Z,103606.47
2023-01-23T17:07:18.238Z,103602.03
2023-01-23T17:09:45.426Z,103608.28
2023-01-23T17:12:18.442Z,103610.09
2023-01-23T17:14:46.913Z,103618.16
2023-01-23T17:17:16.927Z,103622.63
2023-01-23T17:19:44.363Z,103623.47
2023-01-23T17:22:21.136Z,103621.72
2023-01-23T17:24:47.888Z,103615.50
2023-01-23T17:27:14.412Z,103615.50
2023-01-23T17:29:40.984Z,103618.19
2023-01-23T17:32:23.658Z,103628.00
2023-01-23T17:34:50.543Z,103628.00
2023-01-23T17:37:21.848Z,103628.03
2023-01-23T17:39:49.059Z,103626.25
2023-01-23T17:42:15.629Z,103623.59
2023-01-23T17:44:42.177Z,103636.09
2023-01-23T17:47:14.049Z,103631.66
2023-01-23T17:49:43.606Z,103631.69
2023-01-23T17:52:11.467Z,103631.69
2023-01-23T17:54:38.524Z,103630.78
2023-01-23T17:57:05.341Z,103634.31
2023-01-23T17:59:32.002Z,103632.53
2023-01-23T18:01:58.655Z,103626.28
2023-01-23T18:04:25.266Z,103631.63
2023-01-23T18:06:51.969Z,103628.97
2023-01-23T18:09:21.364Z,103636.06
2023-01-23T18:11:52.298Z,103637.88
2023-01-23T18:14:18.890Z,103641.44
2023-01-23T18:16:45.769Z,103638.75
2023-01-23T18:19:15.516Z,103642.31
2023-01-23T18:21:43.255Z,103646.81
2023-01-23T18:24:24.767Z,103650.50
2023-01-23T18:26:55.058Z,103648.78
2023-01-23T18:29:36.441Z,103650.56
2023-01-23T18:32:34.336Z,103653.22
2023-01-23T18:35:18.352Z,103655.00
2023-01-23T18:37:54.156Z,103661.22
2023-01-23T18:40:23.584Z,103661.19
2023-01-23T18:43:27.520Z,103657.63
2023-01-23T18:45:55.792Z,103654.03
2023-01-23T18:48:25.868Z,103652.22
2023-01-23T18:51:08.391Z,103661.13
2023-01-23T18:53:59.697Z,103648.59
2023-01-23T18:56:39.078Z,103656.63
2023-01-23T18:59:34.499Z,103656.63
2023-01-23T19:02:22.672Z,103659.25
2023-01-23T19:04:57.052Z,103644.09
2023-01-23T19:07:24.196Z,103652.16
2023-01-23T19:09:51.136Z,103655.75
2023-01-23T19:12:29.459Z,103664.69
2023-01-23T19:15:10.688Z,103655.81
2023-01-23T19:17:47.398Z,103662.06
2023-01-23T19:20:39.264Z,103664.78
2023-01-23T19:23:31.051Z,103663.91
2023-01-23T19:25:57.920Z,103657.63
2023-01-23T19:28:24.618Z,103668.31
2023-01-23T19:30:51.412Z,103677.22
2023-01-23T19:33:20.160Z,103668.34
2023-01-23T19:35:48.000Z,103674.63
2023-01-23T19:38:15.484Z,103668.38
2023-01-23T19:40:42.846Z,103671.06
2023-01-23T19:43:16.930Z,103671.06
2023-01-23T19:45:44.461Z,103671.09
2023-01-23T19:48:11.482Z,103673.78
2023-01-23T19:50:38.803Z,103666.66
2023-01-23T19:53:05.776Z,103661.31
2023-01-23T19:55:34.884Z,103664.91
2023-01-23T19:58:01.874Z,103675.56
2023-01-23T20:00:31.368Z,103672.00
2023-01-23T20:02:58.262Z,103678.25
2023-01-23T20:05:26.251Z,103680.91
2023-01-23T20:07:54.017Z,103680.91
2023-01-23T20:10:20.992Z,103688.91
2023-01-23T20:12:52.132Z,103684.47
2023-01-23T20:15:22.257Z,103684.53
2023-01-23T20:17:49.267Z,103683.66
2023-01-23T20:20:15.980Z,103688.09
2023-01-23T20:22:43.362Z,103689.00
2023-01-23T20:25:12.817Z,103683.66
2023-01-23T20:27:39.546Z,103689.00
2023-01-23T20:30:09.467Z,103688.97
2023-01-23T20:32:36.510Z,103687.22
2023-01-23T20:35:03.183Z,103691.69
2023-01-23T20:37:30.967Z,103682.78
2023-01-23T20:39:57.558Z,103687.22
2023-01-23T20:42:24.129Z,103688.13
2023-01-23T20:44:51.021Z,103696.16
2023-01-23T20:47:17.629Z,103691.66
2023-01-23T20:49:44.206Z,103686.25
2023-01-23T20:52:29.309Z,103699.53
2023-01-23T20:54:55.808Z,103696.81
2023-01-23T20:57:22.370Z,103695.00
2023-01-23T20:59:48.834Z,103700.28
2023-01-23T21:02:25.677Z,103693.13
2023-01-23T21:04:53.180Z,103691.31
2023-01-23T21:07:22.923Z,103684.13
2023-01-23T21:09:49.581Z,103687.69
2023-01-23T21:12:16.133Z,103694.81
2023-01-23T21:14:42.681Z,103686.78
2023-01-23T21:17:09.791Z,103690.34
2023-01-23T21:19:39.031Z,103687.69
2023-01-23T21:22:06.369Z,103686.81
2023-01-23T21:24:36.707Z,103682.34
2023-01-23T21:27:06.623Z,103679.66
2023-01-23T21:29:33.580Z,103680.59
2023-01-23T21:32:00.451Z,103680.63
2023-01-23T21:34:27.173Z,103681.56
2023-01-23T21:36:53.749Z,103683.38
2023-01-23T21:39:21.755Z,103683.41
2023-01-23T21:41:48.271Z,103687.00
2023-01-23T21:44:14.833Z,103680.75
2023-01-23T21:46:41.579Z,103685.19
2023-01-23T21:49:08.426Z,103684.31
2023-01-23T21:51:34.977Z,103690.53
2023-01-23T21:54:01.654Z,103691.38
2023-01-23T21:56:28.312Z,103690.47
2023-01-23T21:58:55.336Z,103696.69
2023-01-23T22:01:35.608Z,103699.38
2023-01-23T22:04:03.798Z,103694.94
2023-01-23T22:06:31.236Z,103694.97
2023-01-23T22:08:57.981Z,103693.22
2023-01-23T22:11:25.373Z,103692.34
2023-01-23T22:13:52.939Z,103691.47
2023-01-23T22:16:25.337Z,103693.28
2023-01-23T22:18:54.902Z,103696.00
2023-01-23T22:21:21.592Z,103701.31
2023-01-23T22:23:48.176Z,103704.03
2023-01-23T22:26:14.753Z,103696.06
2023-01-23T22:28:41.313Z,103694.28
2023-01-23T22:31:11.000Z,103704.06
2023-01-23T22:33:40.843Z,103697.81
2023-01-23T22:36:10.725Z,103696.91
2023-01-23T22:38:37.311Z,103698.72
2023-01-23T22:41:06.174Z,103701.38
2023-01-23T22:44:01.683Z,103704.09
2023-01-23T22:46:28.907Z,103704.06
2023-01-23T22:48:55.600Z,103693.41
2023-01-23T22:51:27.169Z,103704.13
2023-01-23T22:53:55.097Z,103703.22
2023-01-23T22:56:22.214Z,103703.22
2023-01-23T22:58:50.390Z,103705.03
2023-01-23T23:01:17.885Z,103708.59
2023-01-23T23:03:44.633Z,103716.59
2023-01-23T23:06:13.454Z,103724.63
2023-01-23T23:08:40.679Z,103718.38
2023-01-23T23:11:19.184Z,103713.03
2023-01-23T23:13:46.818Z,103706.78
2023-01-23T23:16:22.487Z,103715.69
2023-01-23T23:18:51.349Z,103724.59
2023-01-23T23:21:21.435Z,103716.59
2023-01-23T23:23:48.474Z,103721.03
2023-01-23T23:26:16.074Z,103717.47
2023-01-23T23:28:43.215Z,103720.16
2023-01-23T23:31:10.257Z,103714.78
2023-01-23T23:33:37.404Z,103716.56
2023-01-23T23:36:04.365Z,103700.53
2023-01-23T23:38:30.866Z,103689.84
2023-01-23T23:40:59.495Z,103699.66
2023-01-23T23:43:27.218Z,103695.25
2023-01-23T23:45:55.724Z,103700.59
2023-01-23T23:48:23.418Z,103700.63
2023-01-23T23:50:50.809Z,103698.88
2023-01-23T23:53:17.736Z,103701.53
2023-01-23T23:55:44.665Z,103706.88
2023-01-23T23:58:11.514Z,103714.00
